This is the latest recevied weather packets stored in our database for station/object K6QM-1. If no packets are shown the sender has not sent any weather packets the latest 10 day(s).
| Time | Temp. | Humidity | Pressure | Rain* | Wind** | Luminosity | Snow |
|---|---|---|---|---|---|---|---|
| 1777770637 | 23.89° C | 48% | 1013 hPa | - | - | - | - |
| 1777767936 | 24.44° C | 47% | 1013.1 hPa | - | - | - | - |
| 1777767037 | 23.89° C | 48% | 1013.1 hPa | - | - | - | - |
| 1777766136 | 24.44° C | 48% | 1013 hPa | - | - | - | - |
| 1777765237 | 25° C | 47% | 1013.1 hPa | - | - | - | - |
| 1777761636 | 24.44° C | 49% | 1013.4 hPa | - | - | - | - |
| 1777760735 | 23.89° C | 49% | 1013.7 hPa | - | - | - | - |
| 1777759835 | 24.44° C | 50% | 1013.9 hPa | - | - | - | - |
| 1777758935 | 24.44° C | 50% | 1014.2 hPa | - | - | - | - |
| 1777757135 | 23.33° C | 52% | 1014.6 hPa | - | - | - | - |
| 1777756235 | 23.33° C | 53% | 1014.7 hPa | - | - | - | - |
| 1777755335 | 23.89° C | 52% | 1014.6 hPa | - | - | - | - |
| 1777753535 | 23.89° C | 53% | 1014.6 hPa | - | - | - | - |
| 1777752635 | 23.33° C | 53% | 1014.6 hPa | - | - | - | - |
| 1777751734 | 23.33° C | 54% | 1014.7 hPa | - | - | - | - |
| 1777749935 | 22.22° C | 57% | 1015.2 hPa | - | - | - | - |
| 1777749035 | 21.11° C | 60% | 1015.4 hPa | - | - | - | - |
| 1777748135 | 20.56° C | 61% | 1015.6 hPa | - | - | - | - |
| 1777746334 | 21.11° C | 61% | 1015.9 hPa | - | - | - | - |
| 1777745435 | 20.56° C | 59% | 1016.2 hPa | - | - | - | - |
| 1777744535 | 20.56° C | 60% | 1016.3 hPa | - | - | - | - |
| 1777742734 | 20° C | 61% | 1016.3 hPa | - | - | - | - |
| 1777741833 | 18.89° C | 63% | 1016.6 hPa | - | - | - | - |
| 1777740034 | 18.89° C | 63% | 1016.9 hPa | - | - | - | - |
| 1777739133 | 18.89° C | 64% | 1016.7 hPa | - | - | - | - |
* Rain since midnight (hover to see other rain measurements)
** Current wind speed in m/s (hover to see current wind gust speed)